sensor_id;sensor_type;location;lat;lon;timestamp;pressure;altitude;pressure_sealevel;temperature;humidity
10658;BME280;5377;43.276;26.930;2023-08-08T00:03:00;98703.78;;;20.64;90.42
10658;BME280;5377;43.276;26.930;2023-08-08T00:08:48;98707.66;;;20.53;94.97
10658;BME280;5377;43.276;26.930;2023-08-08T00:15:15;98731.59;;;20.41;100.00
10658;BME280;5377;43.276;26.930;2023-08-08T00:21:07;98725.34;;;20.35;100.00
10658;BME280;5377;43.276;26.930;2023-08-08T00:30:21;98731.94;;;20.04;100.00
10658;BME280;5377;43.276;26.930;2023-08-08T00:32:52;98734.34;;;20.10;100.00
10658;BME280;5377;43.276;26.930;2023-08-08T00:39:14;98724.31;;;20.01;100.00
10658;BME280;5377;43.276;26.930;2023-08-08T00:41:51;98745.00;;;19.97;100.00
10658;BME280;5377;43.276;26.930;2023-08-08T00:51:06;98740.66;;;19.96;100.00
10658;BME280;5377;43.276;26.930;2023-08-08T01:22:44;98733.78;;;19.22;100.00
10658;BME280;5377;43.276;26.930;2023-08-08T01:35:26;98742.94;;;19.06;100.00
10658;BME280;5377;43.276;26.930;2023-08-08T01:58:18;98754.81;;;18.74;100.00
10658;BME280;5377;43.276;26.930;2023-08-08T02:29:21;98801.59;;;18.54;100.00
10658;BME280;5377;43.276;26.930;2023-08-08T02:31:48;98784.75;;;18.47;100.00
10658;BME280;5377;43.276;26.930;2023-08-08T02:41:19;98837.66;;;18.55;100.00
10658;BME280;5377;43.276;26.930;2023-08-08T02:50:31;98846.72;;;18.65;100.00
10658;BME280;5377;43.276;26.930;2023-08-08T02:56:22;98849.69;;;18.64;100.00
10658;BME280;5377;43.276;26.930;2023-08-08T02:59:04;98847.69;;;18.54;100.00
10658;BME280;5377;43.276;26.930;2023-08-08T03:11:45;98881.63;;;18.57;100.00
10658;BME280;5377;43.276;26.930;2023-08-08T03:17:47;98879.53;;;18.32;100.00
10658;BME280;5377;43.276;26.930;2023-08-08T03:34:32;98934.59;;;18.05;100.00
10658;BME280;5377;43.276;26.930;2023-08-08T03:40:45;98964.69;;;18.04;100.00
10658;BME280;5377;43.276;26.930;2023-08-08T03:46:44;98950.03;;;17.78;100.00
10658;BME280;5377;43.276;26.930;2023-08-08T03:52:34;98992.16;;;17.91;100.00
10658;BME280;5377;43.276;26.930;2023-08-08T03:58:34;99012.13;;;17.85;100.00
10658;BME280;5377;43.276;26.930;2023-08-08T04:04:35;99001.94;;;17.70;100.00
10658;BME280;5377;43.276;26.930;2023-08-08T04:10:47;98992.06;;;17.64;100.00
10658;BME280;5377;43.276;26.930;2023-08-08T04:13:30;98976.19;;;17.51;100.00
10658;BME280;5377;43.276;26.930;2023-08-08T04:19:32;99007.06;;;17.50;100.00
10658;BME280;5377;43.276;26.930;2023-08-08T04:22:00;99019.72;;;17.44;100.00
10658;BME280;5377;43.276;26.930;2023-08-08T05:03:23;99069.84;;;17.30;100.00
10658;BME280;5377;43.276;26.930;2023-08-08T05:09:20;99071.59;;;17.19;100.00
10658;BME280;5377;43.276;26.930;2023-08-08T05:15:13;99101.59;;;17.18;100.00
10658;BME280;5377;43.276;26.930;2023-08-08T05:17:40;99120.41;;;17.41;100.00
10658;BME280;5377;43.276;26.930;2023-08-08T05:23:54;99116.88;;;17.40;100.00
10658;BME280;5377;43.276;26.930;2023-08-08T05:29:44;99069.28;;;17.11;100.00
10658;BME280;5377;43.276;26.930;2023-08-08T05:35:42;99090.94;;;17.44;100.00
10658;BME280;5377;43.276;26.930;2023-08-08T05:41:32;99091.50;;;17.46;100.00
10658;BME280;5377;43.276;26.930;2023-08-08T06:04:21;99084.03;;;16.70;100.00
10658;BME280;5377;43.276;26.930;2023-08-08T06:07:23;99130.31;;;17.02;100.00
10658;BME280;5377;43.276;26.930;2023-08-08T06:16:25;99121.06;;;16.69;100.00
10658;BME280;5377;43.276;26.930;2023-08-08T06:22:51;99143.13;;;16.78;100.00
10658;BME280;5377;43.276;26.930;2023-08-08T06:28:56;99141.41;;;16.72;100.00
10658;BME280;5377;43.276;26.930;2023-08-08T06:31:55;99143.03;;;16.73;100.00
10658;BME280;5377;43.276;26.930;2023-08-08T06:34:29;99134.44;;;16.76;100.00
10658;BME280;5377;43.276;26.930;2023-08-08T06:40:43;99162.88;;;16.78;100.00
10658;BME280;5377;43.276;26.930;2023-08-08T06:43:44;99165.25;;;16.75;100.00
10658;BME280;5377;43.276;26.930;2023-08-08T06:53:29;99194.56;;;16.66;100.00
10658;BME280;5377;43.276;26.930;2023-08-08T07:42:15;99202.44;;;16.56;100.00
10658;BME280;5377;43.276;26.930;2023-08-08T07:48:35;99217.69;;;16.62;100.00
10658;BME280;5377;43.276;26.930;2023-08-08T07:54:25;99212.06;;;16.75;100.00
10658;BME280;5377;43.276;26.930;2023-08-08T07:57:26;99211.34;;;16.80;100.00
10658;BME280;5377;43.276;26.930;2023-08-08T09:05:58;99235.06;;;17.18;100.00
10658;BME280;5377;43.276;26.930;2023-08-08T09:08:41;99245.63;;;17.20;100.00
10658;BME280;5377;43.276;26.930;2023-08-08T09:11:08;99240.06;;;17.26;100.00
10658;BME280;5377;43.276;26.930;2023-08-08T09:23:47;99222.31;;;17.02;100.00
10658;BME280;5377;43.276;26.930;2023-08-08T09:32:51;99207.81;;;17.08;100.00
10658;BME280;5377;43.276;26.930;2023-08-08T09:39:11;99205.16;;;17.41;100.00
10658;BME280;5377;43.276;26.930;2023-08-08T09:48:34;99213.19;;;17.53;100.00
10658;BME280;5377;43.276;26.930;2023-08-08T09:54:24;99168.22;;;17.52;100.00
10658;BME280;5377;43.276;26.930;2023-08-08T10:00:27;99198.00;;;17.52;100.00
10658;BME280;5377;43.276;26.930;2023-08-08T10:02:56;99134.94;;;17.35;100.00
10658;BME280;5377;43.276;26.930;2023-08-08T10:22:34;99110.75;;;18.27;100.00
10658;BME280;5377;43.276;26.930;2023-08-08T10:25:03;99163.44;;;18.75;100.00
10658;BME280;5377;43.276;26.930;2023-08-08T10:27:31;99150.16;;;18.79;100.00
10658;BME280;5377;43.276;26.930;2023-08-08T10:30:04;99161.50;;;19.29;100.00
10658;BME280;5377;43.276;26.930;2023-08-08T10:32:38;99157.47;;;19.69;100.00
10658;BME280;5377;43.276;26.930;2023-08-08T10:35:06;99145.56;;;20.17;100.00
10658;BME280;5377;43.276;26.930;2023-08-08T10:37:35;99093.19;;;20.47;100.00
10658;BME280;5377;43.276;26.930;2023-08-08T10:40:03;99057.31;;;20.71;100.00
10658;BME280;5377;43.276;26.930;2023-08-08T10:42:36;99117.47;;;21.81;100.00
10658;BME280;5377;43.276;26.930;2023-08-08T10:45:10;99101.94;;;22.56;100.00
10658;BME280;5377;43.276;26.930;2023-08-08T10:47:38;99101.50;;;23.22;99.32
10658;BME280;5377;43.276;26.930;2023-08-08T10:50:06;99094.19;;;23.76;98.65
10658;BME280;5377;43.276;26.930;2023-08-08T10:52:50;99091.56;;;24.13;92.09
10658;BME280;5377;43.276;26.930;2023-08-08T10:55:21;99078.00;;;24.70;88.67
10658;BME280;5377;43.276;26.930;2023-08-08T10:57:55;99069.44;;;25.41;83.74
10658;BME280;5377;43.276;26.930;2023-08-08T11:00:25;99069.44;;;25.09;73.33
10658;BME280;5377;43.276;26.930;2023-08-08T11:02:53;99020.03;;;25.14;76.67
10658;BME280;5377;43.276;26.930;2023-08-08T11:05:21;99077.69;;;24.71;74.08
10658;BME280;5377;43.276;26.930;2023-08-08T11:07:50;99069.75;;;24.88;73.78
10658;BME280;5377;43.276;26.930;2023-08-08T11:10:17;99055.59;;;24.81;73.78
10658;BME280;5377;43.276;26.930;2023-08-08T11:12:53;99018.19;;;25.09;72.19
10658;BME280;5377;43.276;26.930;2023-08-08T11:15:20;99071.25;;;25.92;71.94
10658;BME280;5377;43.276;26.930;2023-08-08T11:17:48;99071.50;;;26.32;71.36
10658;BME280;5377;43.276;26.930;2023-08-08T11:20:15;98917.28;;;25.53;64.43
10658;BME280;5377;43.276;26.930;2023-08-08T11:22:41;99069.41;;;26.42;63.21
10658;BME280;5377;43.276;26.930;2023-08-08T11:25:10;98953.63;;;25.99;62.12
10658;BME280;5377;43.276;26.930;2023-08-08T11:27:48;99027.94;;;26.89;63.19
10658;BME280;5377;43.276;26.930;2023-08-08T11:30:16;99065.69;;;27.42;60.39
10658;BME280;5377;43.276;26.930;2023-08-08T11:32:42;99022.31;;;27.16;60.52
10658;BME280;5377;43.276;26.930;2023-08-08T11:35:09;99096.66;;;26.89;60.98
10658;BME280;5377;43.276;26.930;2023-08-08T11:37:37;99019.94;;;27.23;64.12
10658;BME280;5377;43.276;26.930;2023-08-08T11:40:05;99043.00;;;27.67;60.85
10658;BME280;5377;43.276;26.930;2023-08-08T11:42:35;98940.38;;;27.75;57.92
10658;BME280;5377;43.276;26.930;2023-08-08T11:45:02;99061.59;;;28.01;59.25
10658;BME280;5377;43.276;26.930;2023-08-08T11:47:30;99046.31;;;27.86;57.43
10658;BME280;5377;43.276;26.930;2023-08-08T11:50:02;99052.06;;;28.16;56.19
10658;BME280;5377;43.276;26.930;2023-08-08T11:52:29;99050.50;;;28.32;56.78
10658;BME280;5377;43.276;26.930;2023-08-08T11:54:58;99030.78;;;27.90;57.02
10658;BME280;5377;43.276;26.930;2023-08-08T11:57:26;99039.94;;;28.17;58.39
10658;BME280;5377;43.276;26.930;2023-08-08T11:59:54;99039.53;;;28.84;56.24
10658;BME280;5377;43.276;26.930;2023-08-08T12:02:22;99033.03;;;29.14;53.96
10658;BME280;5377;43.276;26.930;2023-08-08T12:04:49;98950.34;;;28.80;52.92
10658;BME280;5377;43.276;26.930;2023-08-08T12:07:17;99039.50;;;29.18;52.20
10658;BME280;5377;43.276;26.930;2023-08-08T12:09:46;99063.13;;;28.24;51.71
10658;BME280;5377;43.276;26.930;2023-08-08T12:12:13;99037.25;;;28.51;52.41
10658;BME280;5377;43.276;26.930;2023-08-08T12:14:42;98989.56;;;28.77;52.27
10658;BME280;5377;43.276;26.930;2023-08-08T12:17:10;98987.06;;;29.27;50.90
10658;BME280;5377;43.276;26.930;2023-08-08T12:19:45;99028.13;;;29.29;50.91
10658;BME280;5377;43.276;26.930;2023-08-08T12:22:12;99020.72;;;29.97;49.88
10658;BME280;5377;43.276;26.930;2023-08-08T12:24:39;98974.09;;;30.46;49.75
10658;BME280;5377;43.276;26.930;2023-08-08T12:27:06;98963.38;;;30.23;46.39
10658;BME280;5377;43.276;26.930;2023-08-08T12:29:33;98865.09;;;29.72;45.01
10658;BME280;5377;43.276;26.930;2023-08-08T12:31:59;98880.19;;;29.95;45.08
10658;BME280;5377;43.276;26.930;2023-08-08T12:34:29;98858.03;;;29.62;44.66
10658;BME280;5377;43.276;26.930;2023-08-08T12:36:56;99001.81;;;30.58;46.30
10658;BME280;5377;43.276;26.930;2023-08-08T12:39:23;98961.31;;;30.62;45.44
10658;BME280;5377;43.276;26.930;2023-08-08T12:41:50;98996.22;;;30.99;44.70
10658;BME280;5377;43.276;26.930;2023-08-08T12:44:16;98958.06;;;31.50;44.28
10658;BME280;5377;43.276;26.930;2023-08-08T12:46:43;98990.28;;;32.28;43.40
10658;BME280;5377;43.276;26.930;2023-08-08T12:49:10;98974.09;;;31.57;41.33
10658;BME280;5377;43.276;26.930;2023-08-08T12:51:38;98927.50;;;30.15;43.00
10658;BME280;5377;43.276;26.930;2023-08-08T12:54:06;98910.69;;;30.28;42.13
10658;BME280;5377;43.276;26.930;2023-08-08T12:56:33;98987.94;;;30.66;42.89
10658;BME280;5377;43.276;26.930;2023-08-08T12:58:59;98974.00;;;30.13;43.37
10658;BME280;5377;43.276;26.930;2023-08-08T13:01:29;98989.00;;;30.74;42.71
10658;BME280;5377;43.276;26.930;2023-08-08T13:03:56;98975.81;;;31.25;40.75
10658;BME280;5377;43.276;26.930;2023-08-08T13:06:23;98974.09;;;30.99;41.84
10658;BME280;5377;43.276;26.930;2023-08-08T13:08:51;98936.13;;;30.55;39.34
10658;BME280;5377;43.276;26.930;2023-08-08T13:11:18;98969.41;;;31.12;40.63
10658;BME280;5377;43.276;26.930;2023-08-08T13:13:44;98909.66;;;30.99;38.68
10658;BME280;5377;43.276;26.930;2023-08-08T13:16:11;98963.38;;;31.43;39.83
10658;BME280;5377;43.276;26.930;2023-08-08T13:18:39;98960.22;;;30.87;39.72
10658;BME280;5377;43.276;26.930;2023-08-08T13:21:06;98961.03;;;29.84;40.79
10658;BME280;5377;43.276;26.930;2023-08-08T13:23:33;98965.34;;;29.93;41.55
10658;BME280;5377;43.276;26.930;2023-08-08T13:26:01;98907.69;;;30.54;39.38
10658;BME280;5377;43.276;26.930;2023-08-08T13:28:29;98956.69;;;31.81;38.14
10658;BME280;5377;43.276;26.930;2023-08-08T13:30:56;98949.63;;;32.08;36.87
10658;BME280;5377;43.276;26.930;2023-08-08T13:33:23;98948.94;;;31.50;37.52
10658;BME280;5377;43.276;26.930;2023-08-08T13:35:49;98805.56;;;29.83;37.10
10658;BME280;5377;43.276;26.930;2023-08-08T13:38:16;98889.53;;;29.82;38.31
10658;BME280;5377;43.276;26.930;2023-08-08T13:40:43;98965.69;;;29.62;39.83
10658;BME280;5377;43.276;26.930;2023-08-08T13:43:12;98859.16;;;29.32;39.25
10658;BME280;5377;43.276;26.930;2023-08-08T13:45:39;98943.56;;;30.96;38.98
10658;BME280;5377;43.276;26.930;2023-08-08T13:48:06;98951.91;;;31.20;37.32
10658;BME280;5377;43.276;26.930;2023-08-08T13:50:32;98926.78;;;31.50;35.88
10658;BME280;5377;43.276;26.930;2023-08-08T13:52:59;98920.41;;;32.10;34.65
10658;BME280;5377;43.276;26.930;2023-08-08T13:55:26;98900.34;;;32.41;34.50
10658;BME280;5377;43.276;26.930;2023-08-08T13:57:53;98944.22;;;32.79;32.94
10658;BME280;5377;43.276;26.930;2023-08-08T14:00:22;98907.50;;;32.70;33.55
10658;BME280;5377;43.276;26.930;2023-08-08T14:02:49;98920.22;;;33.46;33.32
10658;BME280;5377;43.276;26.930;2023-08-08T14:05:16;98837.16;;;33.26;32.61
10658;BME280;5377;43.276;26.930;2023-08-08T14:07:43;98934.75;;;34.26;31.10
10658;BME280;5377;43.276;26.930;2023-08-08T14:10:10;98910.69;;;33.16;31.64
10658;BME280;5377;43.276;26.930;2023-08-08T14:12:36;98956.69;;;31.69;33.80
10658;BME280;5377;43.276;26.930;2023-08-08T14:15:04;98932.78;;;30.07;34.89
10658;BME280;5377;43.276;26.930;2023-08-08T14:17:33;98961.56;;;29.30;36.71
10658;BME280;5377;43.276;26.930;2023-08-08T14:19:59;98966.09;;;28.27;38.34
10658;BME280;5377;43.276;26.930;2023-08-08T14:22:26;98946.16;;;28.39;38.20
10658;BME280;5377;43.276;26.930;2023-08-08T14:24:53;98966.31;;;29.12;37.87
10658;BME280;5377;43.276;26.930;2023-08-08T14:27:20;98947.97;;;29.93;37.63
10658;BME280;5377;43.276;26.930;2023-08-08T14:29:47;98947.59;;;30.45;36.51
10658;BME280;5377;43.276;26.930;2023-08-08T14:32:14;98878.44;;;30.53;34.87
10658;BME280;5377;43.276;26.930;2023-08-08T14:34:42;98897.50;;;30.67;34.49
10658;BME280;5377;43.276;26.930;2023-08-08T14:37:09;98963.19;;;30.82;35.45
10658;BME280;5377;43.276;26.930;2023-08-08T14:39:36;98916.81;;;30.34;34.41
10658;BME280;5377;43.276;26.930;2023-08-08T14:42:03;98925.88;;;29.93;35.60
10658;BME280;5377;43.276;26.930;2023-08-08T14:44:30;98948.06;;;30.47;34.60
10658;BME280;5377;43.276;26.930;2023-08-08T14:46:57;98948.06;;;30.47;34.94
10658;BME280;5377;43.276;26.930;2023-08-08T14:49:24;98973.34;;;30.78;34.49
10658;BME280;5377;43.276;26.930;2023-08-08T14:51:52;98947.69;;;31.23;34.72
10658;BME280;5377;43.276;26.930;2023-08-08T14:54:19;98956.44;;;31.25;34.00
10658;BME280;5377;43.276;26.930;2023-08-08T14:56:46;98939.19;;;31.07;33.40
10658;BME280;5377;43.276;26.930;2023-08-08T14:59:13;98951.41;;;31.06;32.93
10658;BME280;5377;43.276;26.930;2023-08-08T15:01:42;98935.63;;;30.20;34.62
10658;BME280;5377;43.276;26.930;2023-08-08T15:04:09;98940.13;;;29.36;35.59
10658;BME280;5377;43.276;26.930;2023-08-08T15:06:37;98968.16;;;28.74;36.18
10658;BME280;5377;43.276;26.930;2023-08-08T15:09:08;98962.03;;;28.60;37.13
10658;BME280;5377;43.276;26.930;2023-08-08T15:11:35;98939.50;;;28.49;36.29
10658;BME280;5377;43.276;26.930;2023-08-08T15:14:02;98974.81;;;28.12;37.68
10658;BME280;5377;43.276;26.930;2023-08-08T15:16:32;98891.63;;;27.19;38.29
10658;BME280;5377;43.276;26.930;2023-08-08T15:18:59;98930.13;;;27.19;39.07
10658;BME280;5377;43.276;26.930;2023-08-08T15:21:28;98957.84;;;27.71;38.23
10658;BME280;5377;43.276;26.930;2023-08-08T15:23:55;98975.00;;;28.50;37.67
10658;BME280;5377;43.276;26.930;2023-08-08T15:26:23;98962.59;;;29.08;35.92
10658;BME280;5377;43.276;26.930;2023-08-08T15:28:50;98957.41;;;29.15;35.23
10658;BME280;5377;43.276;26.930;2023-08-08T15:31:17;98965.81;;;29.28;35.57
10658;BME280;5377;43.276;26.930;2023-08-08T15:33:44;98930.00;;;29.57;35.54
10658;BME280;5377;43.276;26.930;2023-08-08T15:36:11;98942.25;;;29.68;34.89
10658;BME280;5377;43.276;26.930;2023-08-08T15:38:37;98962.72;;;30.26;34.89
10658;BME280;5377;43.276;26.930;2023-08-08T15:41:04;98964.31;;;30.69;33.84
10658;BME280;5377;43.276;26.930;2023-08-08T15:43:33;98940.69;;;30.51;33.25
10658;BME280;5377;43.276;26.930;2023-08-08T15:46:00;98914.16;;;30.37;34.06
10658;BME280;5377;43.276;26.930;2023-08-08T15:48:29;98853.25;;;29.71;33.56
10658;BME280;5377;43.276;26.930;2023-08-08T15:50:57;98900.06;;;29.89;33.96
10658;BME280;5377;43.276;26.930;2023-08-08T15:53:24;98938.28;;;29.87;33.34
10658;BME280;5377;43.276;26.930;2023-08-08T15:55:53;98977.38;;;29.59;34.10
10658;BME280;5377;43.276;26.930;2023-08-08T15:58:20;98975.59;;;29.63;34.64
10658;BME280;5377;43.276;26.930;2023-08-08T16:00:48;98929.31;;;29.22;34.53
10658;BME280;5377;43.276;26.930;2023-08-08T16:03:17;98934.84;;;29.22;34.75
10658;BME280;5377;43.276;26.930;2023-08-08T16:05:44;98973.06;;;29.49;35.00
10658;BME280;5377;43.276;26.930;2023-08-08T16:08:11;98943.34;;;28.91;35.12
10658;BME280;5377;43.276;26.930;2023-08-08T16:10:38;98960.91;;;28.86;35.64
10658;BME280;5377;43.276;26.930;2023-08-08T16:13:05;98987.97;;;28.93;35.51
10658;BME280;5377;43.276;26.930;2023-08-08T16:15:32;99000.31;;;28.87;35.85
10658;BME280;5377;43.276;26.930;2023-08-08T16:18:01;98985.38;;;28.88;36.03
10658;BME280;5377;43.276;26.930;2023-08-08T16:20:27;98979.19;;;28.74;35.91
10658;BME280;5377;43.276;26.930;2023-08-08T16:22:54;98993.13;;;28.69;35.94
10658;BME280;5377;43.276;26.930;2023-08-08T16:25:21;98912.28;;;28.30;36.75
10658;BME280;5377;43.276;26.930;2023-08-08T16:27:48;98990.72;;;28.58;36.28
10658;BME280;5377;43.276;26.930;2023-08-08T16:30:15;98993.47;;;28.58;36.42
10658;BME280;5377;43.276;26.930;2023-08-08T16:32:43;98993.47;;;28.58;36.85
10658;BME280;5377;43.276;26.930;2023-08-08T16:35:11;99000.63;;;28.60;36.68
10658;BME280;5377;43.276;26.930;2023-08-08T16:37:38;98999.31;;;28.57;37.58
10658;BME280;5377;43.276;26.930;2023-08-08T16:40:06;99007.88;;;28.73;37.35
10658;BME280;5377;43.276;26.930;2023-08-08T16:42:33;99005.47;;;28.71;37.05
10658;BME280;5377;43.276;26.930;2023-08-08T16:45:00;99001.41;;;28.69;36.90
10658;BME280;5377;43.276;26.930;2023-08-08T16:47:28;99011.31;;;28.52;37.28
10658;BME280;5377;43.276;26.930;2023-08-08T16:49:54;99021.69;;;28.55;37.79
10658;BME280;5377;43.276;26.930;2023-08-08T16:52:23;98964.28;;;28.23;37.94
10658;BME280;5377;43.276;26.930;2023-08-08T16:54:50;98979.56;;;28.46;37.80
10658;BME280;5377;43.276;26.930;2023-08-08T16:57:16;98991.69;;;28.28;38.43
10658;BME280;5377;43.276;26.930;2023-08-08T16:59:43;98940.47;;;27.53;39.77
10658;BME280;5377;43.276;26.930;2023-08-08T17:02:10;99022.75;;;27.63;40.35
10658;BME280;5377;43.276;26.930;2023-08-08T17:04:37;99032.66;;;26.97;41.93
10658;BME280;5377;43.276;26.930;2023-08-08T17:07:04;99036.78;;;26.63;43.62
10658;BME280;5377;43.276;26.930;2023-08-08T17:09:33;99038.28;;;26.20;45.26
10658;BME280;5377;43.276;26.930;2023-08-08T17:11:59;98941.03;;;25.02;46.61
10658;BME280;5377;43.276;26.930;2023-08-08T17:14:26;99011.91;;;25.23;47.90
10658;BME280;5377;43.276;26.930;2023-08-08T17:17:07;99052.13;;;25.27;48.89
10658;BME280;5377;43.276;26.930;2023-08-08T17:19:34;99076.91;;;25.22;50.29
10658;BME280;5377;43.276;26.930;2023-08-08T17:22:03;99060.66;;;24.74;51.67
10658;BME280;5377;43.276;26.930;2023-08-08T17:24:29;99069.78;;;24.70;52.19
10658;BME280;5377;43.276;26.930;2023-08-08T17:26:58;99071.16;;;24.30;53.71
10658;BME280;5377;43.276;26.930;2023-08-08T17:29:24;99045.78;;;24.00;53.89
10658;BME280;5377;43.276;26.930;2023-08-08T17:31:51;99079.94;;;24.03;55.92
10658;BME280;5377;43.276;26.930;2023-08-08T17:34:19;99053.91;;;23.57;57.71
10658;BME280;5377;43.276;26.930;2023-08-08T17:36:46;99091.50;;;23.42;59.17
10658;BME280;5377;43.276;26.930;2023-08-08T17:39:13;99033.72;;;22.95;61.26
10658;BME280;5377;43.276;26.930;2023-08-08T17:41:40;99075.16;;;23.02;62.09
10658;BME280;5377;43.276;26.930;2023-08-08T17:44:09;99099.22;;;23.00;63.31
10658;BME280;5377;43.276;26.930;2023-08-08T17:46:36;99049.81;;;22.53;64.00
10658;BME280;5377;43.276;26.930;2023-08-08T17:49:03;99110.34;;;22.65;65.67
10658;BME280;5377;43.276;26.930;2023-08-08T17:51:30;99108.78;;;22.49;68.38
10658;BME280;5377;43.276;26.930;2023-08-08T17:53:57;99109.47;;;22.25;69.70
10658;BME280;5377;43.276;26.930;2023-08-08T17:56:24;99106.19;;;22.28;70.72
10658;BME280;5377;43.276;26.930;2023-08-08T17:58:51;99122.28;;;22.20;72.71
10658;BME280;5377;43.276;26.930;2023-08-08T18:01:19;99148.78;;;22.14;74.38
10658;BME280;5377;43.276;26.930;2023-08-08T18:03:46;99128.06;;;22.08;75.16
10658;BME280;5377;43.276;26.930;2023-08-08T18:06:13;99029.28;;;21.36;78.17
10658;BME280;5377;43.276;26.930;2023-08-08T18:08:40;99140.09;;;21.97;77.70
10658;BME280;5377;43.276;26.930;2023-08-08T18:11:08;99142.00;;;21.91;78.00
10658;BME280;5377;43.276;26.930;2023-08-08T18:13:35;99143.66;;;21.92;79.03
10658;BME280;5377;43.276;26.930;2023-08-08T18:16:02;99155.94;;;21.90;79.48
10658;BME280;5377;43.276;26.930;2023-08-08T18:18:31;99149.94;;;21.72;80.70
10658;BME280;5377;43.276;26.930;2023-08-08T18:20:58;99098.50;;;21.25;81.91
10658;BME280;5377;43.276;26.930;2023-08-08T18:23:25;99093.56;;;21.17;83.54
10658;BME280;5377;43.276;26.930;2023-08-08T18:25:52;99166.31;;;21.62;84.46
10658;BME280;5377;43.276;26.930;2023-08-08T18:28:18;99170.41;;;21.55;85.83
10658;BME280;5377;43.276;26.930;2023-08-08T18:30:46;99167.41;;;21.56;86.32
10658;BME280;5377;43.276;26.930;2023-08-08T18:33:13;99172.06;;;21.56;87.03
10658;BME280;5377;43.276;26.930;2023-08-08T18:35:42;99179.94;;;21.62;88.86
10658;BME280;5377;43.276;26.930;2023-08-08T18:38:09;99137.44;;;21.31;90.90
10658;BME280;5377;43.276;26.930;2023-08-08T18:40:36;99192.75;;;21.62;92.94
10658;BME280;5377;43.276;26.930;2023-08-08T18:43:03;99197.94;;;21.58;91.88
10658;BME280;5377;43.276;26.930;2023-08-08T18:45:30;99145.88;;;21.19;91.66
10658;BME280;5377;43.276;26.930;2023-08-08T18:47:57;99229.56;;;21.54;93.05
10658;BME280;5377;43.276;26.930;2023-08-08T18:50:24;99186.22;;;21.47;93.21
10658;BME280;5377;43.276;26.930;2023-08-08T18:52:52;99129.75;;;21.02;94.04
10658;BME280;5377;43.276;26.930;2023-08-08T18:55:19;99197.09;;;21.42;94.08
10658;BME280;5377;43.276;26.930;2023-08-08T18:57:46;99208.00;;;21.42;94.98
10658;BME280;5377;43.276;26.930;2023-08-08T19:00:13;99199.28;;;21.40;95.72
10658;BME280;5377;43.276;26.930;2023-08-08T19:02:40;99194.66;;;21.36;97.80
10658;BME280;5377;43.276;26.930;2023-08-08T19:05:07;99198.47;;;21.35;99.60
10658;BME280;5377;43.276;26.930;2023-08-08T19:07:34;99165.16;;;20.97;100.00
10658;BME280;5377;43.276;26.930;2023-08-08T19:10:03;99115.44;;;20.39;100.00
10658;BME280;5377;43.276;26.930;2023-08-08T19:12:53;99160.72;;;20.71;100.00
10658;BME280;5377;43.276;26.930;2023-08-08T19:15:20;99210.94;;;21.15;100.00
10658;BME280;5377;43.276;26.930;2023-08-08T19:17:47;99180.69;;;20.97;100.00
10658;BME280;5377;43.276;26.930;2023-08-08T19:20:14;99210.13;;;21.15;100.00
10658;BME280;5377;43.276;26.930;2023-08-08T19:22:46;99211.50;;;21.17;100.00
10658;BME280;5377;43.276;26.930;2023-08-08T19:25:15;99216.69;;;21.19;100.00
10658;BME280;5377;43.276;26.930;2023-08-08T19:27:42;99222.09;;;21.14;100.00
10658;BME280;5377;43.276;26.930;2023-08-08T19:30:10;99226.16;;;21.01;100.00
10658;BME280;5377;43.276;26.930;2023-08-08T19:32:37;99223.69;;;20.84;100.00
10658;BME280;5377;43.276;26.930;2023-08-08T19:35:06;99231.59;;;20.91;100.00
10658;BME280;5377;43.276;26.930;2023-08-08T19:37:33;99077.50;;;20.07;100.00
10658;BME280;5377;43.276;26.930;2023-08-08T19:40:00;99171.59;;;20.61;100.00
10658;BME280;5377;43.276;26.930;2023-08-08T19:42:29;99232.16;;;20.98;100.00
10658;BME280;5377;43.276;26.930;2023-08-08T19:44:56;99241.41;;;20.97;100.00
10658;BME280;5377;43.276;26.930;2023-08-08T19:47:23;99199.34;;;20.52;100.00
10658;BME280;5377;43.276;26.930;2023-08-08T19:49:50;99256.63;;;20.83;100.00
10658;BME280;5377;43.276;26.930;2023-08-08T19:52:16;99248.13;;;20.79;100.00
10658;BME280;5377;43.276;26.930;2023-08-08T19:54:46;99115.81;;;20.01;100.00
10658;BME280;5377;43.276;26.930;2023-08-08T19:57:13;99250.56;;;20.76;100.00
10658;BME280;5377;43.276;26.930;2023-08-08T19:59:41;99255.75;;;20.72;100.00
10658;BME280;5377;43.276;26.930;2023-08-08T20:02:08;99261.16;;;20.67;100.00
10658;BME280;5377;43.276;26.930;2023-08-08T20:04:35;99259.28;;;20.73;100.00
10658;BME280;5377;43.276;26.930;2023-08-08T20:07:02;99239.38;;;20.62;100.00
10658;BME280;5377;43.276;26.930;2023-08-08T20:09:29;99297.31;;;20.58;100.00
10658;BME280;5377;43.276;26.930;2023-08-08T20:11:55;99267.41;;;20.63;100.00
10658;BME280;5377;43.276;26.930;2023-08-08T20:14:22;99271.22;;;20.62;100.00
10658;BME280;5377;43.276;26.930;2023-08-08T20:16:51;99281.97;;;20.41;100.00
10658;BME280;5377;43.276;26.930;2023-08-08T20:19:18;99271.66;;;20.43;100.00
10658;BME280;5377;43.276;26.930;2023-08-08T20:21:44;99276.81;;;20.45;100.00
10658;BME280;5377;43.276;26.930;2023-08-08T20:24:11;99221.09;;;20.10;100.00
10658;BME280;5377;43.276;26.930;2023-08-08T20:26:38;99276.56;;;20.46;100.00
10658;BME280;5377;43.276;26.930;2023-08-08T20:29:05;99272.66;;;20.37;100.00
10658;BME280;5377;43.276;26.930;2023-08-08T20:31:32;99273.19;;;20.34;100.00
10658;BME280;5377;43.276;26.930;2023-08-08T20:34:00;99267.16;;;20.22;100.00
10658;BME280;5377;43.276;26.930;2023-08-08T20:36:27;99271.78;;;20.27;100.00
10658;BME280;5377;43.276;26.930;2023-08-08T20:38:54;99274.78;;;20.25;100.00
10658;BME280;5377;43.276;26.930;2023-08-08T20:41:21;99156.69;;;19.42;100.00
10658;BME280;5377;43.276;26.930;2023-08-08T20:43:47;99276.28;;;20.11;100.00
10658;BME280;5377;43.276;26.930;2023-08-08T20:46:14;99278.69;;;20.02;100.00
10658;BME280;5377;43.276;26.930;2023-08-08T20:48:41;99272.41;;;19.97;100.00